createdAt,value
2019-01-28T00:00:39.370Z,3.10
2019-01-28T00:02:41.061Z,3.10
2019-01-28T00:04:42.713Z,3.10
2019-01-28T00:06:44.365Z,3.10
2019-01-28T00:08:46.023Z,3.10
2019-01-28T00:10:47.940Z,3.10
2019-01-28T00:12:49.601Z,3.00
2019-01-28T00:14:51.257Z,3.00
2019-01-28T00:16:52.905Z,3.00
2019-01-28T00:18:54.555Z,3.00
2019-01-28T00:20:56.205Z,3.00
2019-01-28T00:22:57.861Z,2.90
2019-01-28T00:24:59.801Z,2.90
2019-01-28T00:27:01.460Z,2.90
2019-01-28T00:29:03.238Z,2.90
2019-01-28T00:31:04.884Z,2.80
2019-01-28T00:33:06.535Z,2.80
2019-01-28T00:35:08.218Z,2.80
2019-01-28T00:37:09.861Z,2.80
2019-01-28T00:39:11.520Z,2.90
2019-01-28T00:41:13.179Z,2.90
2019-01-28T00:43:14.820Z,2.80
2019-01-28T00:45:16.466Z,2.80
2019-01-28T00:47:18.118Z,2.70
2019-01-28T00:49:19.770Z,2.80
2019-01-28T00:51:21.657Z,2.90
2019-01-28T00:53:23.309Z,2.80
2019-01-28T00:55:24.954Z,2.80
2019-01-28T00:57:26.594Z,2.80
2019-01-28T00:59:28.252Z,2.90
2019-01-28T01:01:29.909Z,2.90
2019-01-28T01:03:31.628Z,3.00
2019-01-28T01:05:33.369Z,3.00
2019-01-28T01:07:35.033Z,3.10
2019-01-28T01:09:36.705Z,3.10
2019-01-28T01:11:38.347Z,3.10
2019-01-28T01:13:39.991Z,3.20
2019-01-28T01:15:41.929Z,3.20
2019-01-28T01:17:43.886Z,3.20
2019-01-28T01:19:45.548Z,3.20
2019-01-28T01:21:47.189Z,3.10
2019-01-28T01:23:48.861Z,3.20
2019-01-28T01:25:50.513Z,3.20
2019-01-28T01:27:52.166Z,3.20
2019-01-28T01:29:53.821Z,3.20
2019-01-28T01:31:55.468Z,3.30
2019-01-28T01:33:57.124Z,3.30
2019-01-28T01:35:59.059Z,3.20
2019-01-28T01:38:00.709Z,3.30
2019-01-28T01:40:03.005Z,3.30
2019-01-28T01:42:04.644Z,3.30
2019-01-28T01:44:06.571Z,3.30
2019-01-28T01:46:08.220Z,3.30
2019-01-28T01:48:09.877Z,3.30
2019-01-28T01:50:11.892Z,3.30
2019-01-28T01:52:13.535Z,3.30
2019-01-28T01:54:15.202Z,3.30
2019-01-28T01:56:16.850Z,3.30
2019-01-28T01:58:18.495Z,3.40
2019-01-28T02:00:20.612Z,3.40
2019-01-28T02:02:22.373Z,3.40
2019-01-28T02:04:24.037Z,3.40
2019-01-28T02:06:25.675Z,3.40
2019-01-28T02:08:27.332Z,3.40
2019-01-28T02:10:29.004Z,3.40
2019-01-28T02:12:30.653Z,3.40
2019-01-28T02:14:32.300Z,3.40
2019-01-28T02:16:33.968Z,3.40
2019-01-28T02:18:35.888Z,3.50
2019-01-28T02:20:37.601Z,3.40
2019-01-28T02:22:39.609Z,3.40
2019-01-28T02:24:41.577Z,3.40
2019-01-28T02:26:43.527Z,3.40
2019-01-28T02:28:45.171Z,3.30
2019-01-28T02:30:46.839Z,3.40
2019-01-28T02:32:48.488Z,3.40
2019-01-28T02:34:50.131Z,3.30
2019-01-28T02:36:51.783Z,3.40
2019-01-28T02:38:53.432Z,3.30
2019-01-28T02:40:55.094Z,3.40
2019-01-28T02:42:56.744Z,3.40
2019-01-28T02:44:58.387Z,3.40
2019-01-28T02:47:00.048Z,3.40
2019-01-28T02:49:01.696Z,3.50
2019-01-28T02:51:03.352Z,3.50
2019-01-28T02:53:05.003Z,3.50
2019-01-28T02:55:06.686Z,3.60
2019-01-28T02:57:08.340Z,3.50
2019-01-28T02:59:09.998Z,3.50
2019-01-28T03:01:11.662Z,3.50
2019-01-28T03:03:13.317Z,3.50
2019-01-28T03:05:15.561Z,3.60
2019-01-28T03:07:17.217Z,3.60
2019-01-28T03:09:18.875Z,3.60
2019-01-28T03:11:20.542Z,3.60
2019-01-28T03:13:22.196Z,3.60
2019-01-28T03:15:23.839Z,3.50
2019-01-28T03:17:25.841Z,3.50
2019-01-28T03:19:27.484Z,3.60
2019-01-28T03:21:29.149Z,3.50
2019-01-28T03:23:30.806Z,3.50
2019-01-28T03:25:32.451Z,3.50
2019-01-28T03:27:34.117Z,3.50
2019-01-28T03:29:35.777Z,3.40
2019-01-28T03:31:37.723Z,3.50
2019-01-28T03:33:39.461Z,3.50
2019-01-28T03:35:41.123Z,3.40
2019-01-28T03:37:42.771Z,3.50
2019-01-28T03:39:44.720Z,3.50
2019-01-28T03:41:46.681Z,3.40
2019-01-28T03:43:48.340Z,3.50
2019-01-28T03:45:49.985Z,3.40
2019-01-28T03:47:51.651Z,3.40
2019-01-28T03:49:53.287Z,3.40
2019-01-28T03:51:55.343Z,3.40
2019-01-28T03:53:57.266Z,3.50
2019-01-28T03:55:58.899Z,3.50
2019-01-28T03:58:00.560Z,3.50
2019-01-28T04:00:02.673Z,3.40
2019-01-28T04:02:04.339Z,3.30
2019-01-28T04:04:05.976Z,3.30
2019-01-28T04:06:07.626Z,3.20
2019-01-28T04:08:09.285Z,3.10
2019-01-28T04:10:13.917Z,3.20
2019-01-28T04:12:15.593Z,3.20
2019-01-28T04:14:17.241Z,3.20
2019-01-28T04:16:18.892Z,3.20
2019-01-28T04:18:20.560Z,3.10
2019-01-28T04:20:24.517Z,3.10
2019-01-28T04:22:26.190Z,3.10
2019-01-28T04:24:28.137Z,3.00
2019-01-28T04:26:29.780Z,3.10
2019-01-28T04:28:31.447Z,3.10
2019-01-28T04:30:33.350Z,3.10
2019-01-28T04:32:35.001Z,3.20
2019-01-28T04:34:36.644Z,3.10
2019-01-28T04:36:38.292Z,3.10
2019-01-28T04:38:40.271Z,3.20
2019-01-28T04:40:41.934Z,3.20
2019-01-28T04:42:43.590Z,3.20
2019-01-28T04:44:45.231Z,3.20
2019-01-28T04:46:46.884Z,3.20
2019-01-28T04:48:48.544Z,3.20
2019-01-28T04:50:50.201Z,3.20
2019-01-28T04:52:52.167Z,3.10
2019-01-28T04:54:53.821Z,3.20
2019-01-28T04:56:55.776Z,3.10
2019-01-28T04:58:57.449Z,3.10
2019-01-28T05:00:59.096Z,3.10
2019-01-28T05:03:00.766Z,3.10
2019-01-28T05:05:02.450Z,3.10
2019-01-28T05:07:04.106Z,3.20
2019-01-28T05:09:07.666Z,3.10
2019-01-28T05:11:09.313Z,3.10
2019-01-28T05:13:10.982Z,3.10
2019-01-28T05:15:13.433Z,3.20
2019-01-28T05:17:15.401Z,3.20
2019-01-28T05:19:17.061Z,3.00
2019-01-28T05:21:18.720Z,3.00
2019-01-28T05:23:20.635Z,2.90
2019-01-28T05:25:22.291Z,2.90
2019-01-28T05:27:23.941Z,2.90
2019-01-28T05:29:25.892Z,2.90
2019-01-28T05:31:27.537Z,2.90
2019-01-28T05:33:29.504Z,2.90
2019-01-28T05:35:31.157Z,2.90
2019-01-28T05:37:32.801Z,2.90
2019-01-28T05:39:34.456Z,2.90
2019-01-28T05:41:36.112Z,2.80
2019-01-28T05:43:37.776Z,2.90
2019-01-28T05:45:39.433Z,2.80
2019-01-28T05:47:41.376Z,2.80
2019-01-28T05:49:43.042Z,2.80
2019-01-28T05:51:44.689Z,2.80
2019-01-28T05:53:46.644Z,2.80
2019-01-28T05:55:48.290Z,2.70
2019-01-28T05:57:49.945Z,2.80
2019-01-28T05:59:51.615Z,2.80
2019-01-28T06:01:53.609Z,2.80
2019-01-28T06:03:55.264Z,2.70
2019-01-28T06:05:56.926Z,2.70
2019-01-28T06:07:58.581Z,2.70
2019-01-28T06:10:00.245Z,2.70
2019-01-28T06:12:01.903Z,2.70
2019-01-28T06:14:03.937Z,2.70
2019-01-28T06:16:05.858Z,2.80
2019-01-28T06:18:07.505Z,2.80
2019-01-28T06:20:12.632Z,2.80
2019-01-28T06:22:14.320Z,2.70
2019-01-28T06:24:15.972Z,2.80
2019-01-28T06:26:17.616Z,2.70
2019-01-28T06:28:19.519Z,2.80
2019-01-28T06:30:26.116Z,2.70
2019-01-28T06:32:28.053Z,2.80
2019-01-28T06:34:29.707Z,2.80
2019-01-28T06:36:31.358Z,2.80
2019-01-28T06:38:33.317Z,2.80
2019-01-28T06:40:35.168Z,2.90
2019-01-28T06:42:36.820Z,2.80
2019-01-28T06:44:38.480Z,2.90
2019-01-28T06:46:40.133Z,2.80
2019-01-28T06:48:42.967Z,2.80
2019-01-28T06:50:44.661Z,2.80
2019-01-28T06:52:46.381Z,2.80
2019-01-28T06:54:48.839Z,2.80
2019-01-28T06:56:50.494Z,2.80
2019-01-28T06:58:52.384Z,2.80
2019-01-28T07:00:54.041Z,2.80
2019-01-28T07:02:55.688Z,2.90
2019-01-28T07:04:57.353Z,2.80
2019-01-28T07:06:59.010Z,2.80
2019-01-28T07:09:00.669Z,2.80
2019-01-28T07:11:02.604Z,2.80
2019-01-28T07:13:04.271Z,2.80
2019-01-28T07:15:06.346Z,3.00
2019-01-28T07:17:07.997Z,3.00
2019-01-28T07:19:09.644Z,3.00
2019-01-28T07:21:11.296Z,3.00
2019-01-28T07:23:12.953Z,3.00
2019-01-28T07:25:14.620Z,3.10
2019-01-28T07:27:16.368Z,3.00
2019-01-28T07:29:18.015Z,3.00
2019-01-28T07:31:19.692Z,3.00
2019-01-28T07:33:21.345Z,3.10
2019-01-28T07:35:23.005Z,3.10
2019-01-28T07:37:24.661Z,3.10
2019-01-28T07:39:26.653Z,3.10
2019-01-28T07:41:28.643Z,3.00
2019-01-28T07:43:30.316Z,3.10
2019-01-28T07:45:34.890Z,3.00
2019-01-28T07:47:36.539Z,3.00
2019-01-28T07:49:38.489Z,3.10
2019-01-28T07:51:40.143Z,3.10
2019-01-28T07:53:42.104Z,3.00
2019-01-28T07:55:43.760Z,3.10
2019-01-28T07:57:45.399Z,3.00
2019-01-28T07:59:47.421Z,3.00
2019-01-28T08:01:49.094Z,3.00
2019-01-28T08:03:50.745Z,3.00
2019-01-28T08:05:52.530Z,3.00
2019-01-28T08:07:54.159Z,3.00
2019-01-28T08:09:55.839Z,3.00
2019-01-28T08:11:57.506Z,3.00
2019-01-28T08:13:59.158Z,3.00
2019-01-28T08:16:00.821Z,3.00
2019-01-28T08:18:10.303Z,3.00
2019-01-28T08:20:11.516Z,2.90
2019-01-28T08:22:12.520Z,3.00
2019-01-28T08:24:14.661Z,3.00
2019-01-28T08:26:16.311Z,3.00
2019-01-28T08:28:18.295Z,3.00
2019-01-28T08:30:33.768Z,3.00
2019-01-28T08:32:35.430Z,3.00
2019-01-28T08:34:37.087Z,3.00
2019-01-28T08:36:39.008Z,3.00
2019-01-28T08:38:40.643Z,3.00
2019-01-28T08:40:42.298Z,3.00
2019-01-28T08:42:43.973Z,3.00
2019-01-28T08:44:45.625Z,3.00
2019-01-28T08:46:47.576Z,3.00
2019-01-28T08:48:49.662Z,3.10
2019-01-28T08:50:51.588Z,3.10
2019-01-28T08:52:53.555Z,3.10
2019-01-28T08:54:55.200Z,3.10
2019-01-28T08:56:57.165Z,3.10
2019-01-28T08:58:58.818Z,3.10
2019-01-28T09:01:00.778Z,3.10
2019-01-28T09:03:02.459Z,3.10
2019-01-28T09:05:04.504Z,3.10
2019-01-28T09:07:06.169Z,3.00
2019-01-28T09:09:09.280Z,3.10
2019-01-28T09:11:10.940Z,3.00
2019-01-28T09:13:12.603Z,3.00
2019-01-28T09:15:15.837Z,3.00
2019-01-28T09:17:17.487Z,3.10
2019-01-28T09:19:19.149Z,3.00
2019-01-28T09:21:20.788Z,3.10
2019-01-28T09:23:22.444Z,3.10
2019-01-28T09:25:24.486Z,3.10
2019-01-28T09:27:26.153Z,3.10
2019-01-28T09:29:27.796Z,3.20
2019-01-28T09:31:29.453Z,3.20
2019-01-28T09:33:31.401Z,3.20
2019-01-28T09:35:33.052Z,3.30
2019-01-28T09:37:34.716Z,3.30
2019-01-28T09:39:36.366Z,3.30
2019-01-28T09:41:38.038Z,3.30
2019-01-28T09:43:39.791Z,3.30
2019-01-28T09:45:42.046Z,3.20
2019-01-28T09:47:43.699Z,3.20
2019-01-28T09:49:45.593Z,3.20
2019-01-28T09:51:47.245Z,3.20
2019-01-28T09:53:48.899Z,3.20
2019-01-28T09:55:50.552Z,3.20
2019-01-28T09:57:52.225Z,3.30
2019-01-28T09:59:53.877Z,3.20
2019-01-28T10:01:55.534Z,3.30
2019-01-28T10:03:57.197Z,3.30
2019-01-28T10:05:58.857Z,3.30
2019-01-28T10:08:00.513Z,3.30
2019-01-28T10:10:02.471Z,3.40
2019-01-28T10:12:04.421Z,3.40
2019-01-28T10:14:06.090Z,3.50
2019-01-28T10:16:07.833Z,3.50
2019-01-28T10:18:09.596Z,3.50
2019-01-28T10:20:15.364Z,3.60
2019-01-28T10:22:17.013Z,3.70
2019-01-28T10:24:18.681Z,3.70
2019-01-28T10:26:20.319Z,3.70
2019-01-28T10:28:21.985Z,3.80
2019-01-28T10:30:28.820Z,3.90
2019-01-28T10:32:35.996Z,3.90
2019-01-28T10:34:34.364Z,3.90
2019-01-28T10:36:36.017Z,4.00
2019-01-28T10:38:37.709Z,3.90
2019-01-28T10:40:39.592Z,3.90
2019-01-28T10:42:41.261Z,3.90
2019-01-28T10:44:43.232Z,3.80
2019-01-28T10:46:44.882Z,3.80
2019-01-28T10:48:49.771Z,3.70
2019-01-28T10:50:50.126Z,3.80
2019-01-28T10:52:51.772Z,3.70
2019-01-28T10:54:53.428Z,3.70
2019-01-28T10:56:55.085Z,3.70
2019-01-28T10:58:56.745Z,3.60
2019-01-28T11:00:58.398Z,3.60
2019-01-28T11:03:00.061Z,3.60
2019-01-28T11:05:02.008Z,3.60
2019-01-28T11:07:03.661Z,3.60
2019-01-28T11:09:06.468Z,3.60
2019-01-28T11:11:08.214Z,3.60
2019-01-28T11:13:09.983Z,3.70
2019-01-28T11:15:14.226Z,3.70
2019-01-28T11:17:15.923Z,3.80
2019-01-28T11:19:17.658Z,3.90
2019-01-28T11:21:19.425Z,3.90
2019-01-28T11:23:21.240Z,3.90
2019-01-28T11:25:25.360Z,3.90
2019-01-28T11:27:27.070Z,3.90
2019-01-28T11:29:29.062Z,3.90
2019-01-28T11:31:31.062Z,3.90
2019-01-28T11:33:32.961Z,3.90
2019-01-28T11:35:35.717Z,4.00
2019-01-28T11:37:38.086Z,4.00
2019-01-28T11:39:40.011Z,4.10
2019-01-28T11:41:41.967Z,4.10
2019-01-28T11:43:43.659Z,4.10
2019-01-28T11:45:48.809Z,4.10
2019-01-28T11:47:50.637Z,4.10
2019-01-28T11:49:52.556Z,4.10
2019-01-28T11:51:54.245Z,4.00
2019-01-28T11:53:55.887Z,4.00
2019-01-28T11:55:57.547Z,3.90
2019-01-28T11:57:59.192Z,3.80
2019-01-28T12:00:00.854Z,3.70
2019-01-28T12:02:02.513Z,3.70
2019-01-28T12:04:04.445Z,3.70
2019-01-28T12:06:06.119Z,3.60
2019-01-28T12:08:07.759Z,3.60
2019-01-28T12:10:09.533Z,3.60
2019-01-28T12:12:11.184Z,3.60
2019-01-28T12:14:13.112Z,3.50
2019-01-28T12:16:14.777Z,3.50
2019-01-28T12:18:16.717Z,3.50
2019-01-28T12:20:18.965Z,3.50
2019-01-28T12:22:20.955Z,3.40
2019-01-28T12:24:22.599Z,3.40
2019-01-28T12:26:24.259Z,3.40
2019-01-28T12:28:26.204Z,3.40
2019-01-28T12:30:27.894Z,3.30
2019-01-28T12:32:29.553Z,3.40
2019-01-28T12:34:31.205Z,3.50
2019-01-28T12:36:32.864Z,3.50
2019-01-28T12:38:34.508Z,3.50
2019-01-28T12:40:36.168Z,3.50
2019-01-28T12:42:38.077Z,3.50
2019-01-28T12:44:39.733Z,3.50
2019-01-28T12:46:41.396Z,3.50
2019-01-28T12:48:43.049Z,3.50
2019-01-28T12:50:44.992Z,3.50
2019-01-28T12:52:46.672Z,3.50
2019-01-28T12:54:48.411Z,3.50
2019-01-28T12:56:50.069Z,3.50
2019-01-28T12:58:51.712Z,3.40
2019-01-28T13:00:57.545Z,3.40
2019-01-28T13:02:59.205Z,3.40
2019-01-28T13:05:00.917Z,3.40
2019-01-28T13:07:02.581Z,3.40
2019-01-28T13:09:06.662Z,3.40
2019-01-28T13:11:08.567Z,3.40
2019-01-28T13:13:10.215Z,3.30
2019-01-28T13:15:15.356Z,3.30
2019-01-28T13:17:17.085Z,3.30
2019-01-28T13:19:19.072Z,3.30
2019-01-28T13:21:20.740Z,3.30
2019-01-28T13:23:22.390Z,3.30
2019-01-28T13:25:24.761Z,3.30
2019-01-28T13:27:26.425Z,3.30
2019-01-28T13:29:28.379Z,3.40
2019-01-28T13:31:32.805Z,3.40
2019-01-28T13:33:34.084Z,3.40
2019-01-28T13:35:35.737Z,3.40
2019-01-28T13:37:37.392Z,3.30
2019-01-28T13:39:39.048Z,3.30
2019-01-28T13:41:40.693Z,3.30
2019-01-28T13:43:42.360Z,3.20
2019-01-28T13:45:44.005Z,3.10
2019-01-28T13:47:45.669Z,3.10
2019-01-28T13:49:47.331Z,3.10
2019-01-28T13:51:48.976Z,3.10
2019-01-28T13:53:50.642Z,3.10
2019-01-28T13:55:52.298Z,3.10
2019-01-28T13:57:53.958Z,3.10
2019-01-28T13:59:55.893Z,3.00
2019-01-28T14:01:57.542Z,3.00
2019-01-28T14:03:59.205Z,3.00
2019-01-28T14:06:01.157Z,3.00
2019-01-28T14:08:02.816Z,3.00
2019-01-28T14:10:04.988Z,3.00
2019-01-28T14:12:06.636Z,2.90
2019-01-28T14:14:08.322Z,3.00
2019-01-28T14:16:10.851Z,3.00
2019-01-28T14:18:12.807Z,3.00
2019-01-28T14:20:16.108Z,3.00
2019-01-28T14:22:18.064Z,3.00
2019-01-28T14:24:20.014Z,3.00
2019-01-28T14:26:21.677Z,3.00
2019-01-28T14:28:23.347Z,3.00
2019-01-28T14:30:27.965Z,3.00
2019-01-28T14:32:29.897Z,3.00
2019-01-28T14:34:31.854Z,3.00
2019-01-28T14:36:33.517Z,3.00
2019-01-28T14:38:35.189Z,3.00
2019-01-28T14:40:37.753Z,3.00
2019-01-28T14:42:39.694Z,3.00
2019-01-28T14:44:41.353Z,3.00
2019-01-28T14:46:43.004Z,3.00
2019-01-28T14:48:49.166Z,3.00
2019-01-28T14:50:48.217Z,3.00
2019-01-28T14:52:50.138Z,3.00
2019-01-28T14:54:51.807Z,3.00
2019-01-28T14:56:53.466Z,3.00
2019-01-28T14:58:55.357Z,3.00
2019-01-28T15:00:57.009Z,3.00
2019-01-28T15:02:58.974Z,3.00
2019-01-28T15:05:01.247Z,3.00
2019-01-28T15:07:02.904Z,3.00
2019-01-28T15:09:09.186Z,3.00
2019-01-28T15:11:10.841Z,3.00
2019-01-28T15:13:12.496Z,3.00
2019-01-28T15:15:16.489Z,3.00
2019-01-28T15:17:18.421Z,3.00
2019-01-28T15:19:20.080Z,3.00
2019-01-28T15:21:21.737Z,3.00
2019-01-28T15:23:23.393Z,3.00
2019-01-28T15:25:25.048Z,3.00
2019-01-28T15:27:26.695Z,3.00
2019-01-28T15:29:28.358Z,3.00
2019-01-28T15:31:30.009Z,3.00
2019-01-28T15:33:31.643Z,3.10
2019-01-28T15:35:33.296Z,3.10
2019-01-28T15:37:34.936Z,3.10
2019-01-28T15:39:36.605Z,3.10
2019-01-28T15:41:38.258Z,3.10
2019-01-28T15:43:39.909Z,3.10
2019-01-28T15:45:42.791Z,3.10
2019-01-28T15:47:44.728Z,3.10
2019-01-28T15:49:46.486Z,3.10
2019-01-28T15:51:48.141Z,3.10
2019-01-28T15:53:49.785Z,3.10
2019-01-28T15:55:51.434Z,3.20
2019-01-28T15:57:53.089Z,3.20
2019-01-28T15:59:54.745Z,3.20
2019-01-28T16:01:56.388Z,3.20
2019-01-28T16:03:58.352Z,3.20
2019-01-28T16:06:00.004Z,3.20
2019-01-28T16:08:01.657Z,3.20
2019-01-28T16:10:04.981Z,3.20
2019-01-28T16:12:06.664Z,3.20
2019-01-28T16:14:08.312Z,3.20
2019-01-28T16:16:09.976Z,3.20
2019-01-28T16:18:12.024Z,3.20
2019-01-28T16:20:18.498Z,3.20
2019-01-28T16:22:17.931Z,3.20
2019-01-28T16:24:19.577Z,3.20
2019-01-28T16:26:21.468Z,3.20
2019-01-28T16:28:23.135Z,3.20
2019-01-28T16:30:26.569Z,3.20
2019-01-28T16:32:28.524Z,3.20
2019-01-28T16:34:30.185Z,3.30
2019-01-28T16:36:31.835Z,3.30
2019-01-28T16:38:33.493Z,3.20
2019-01-28T16:40:35.371Z,3.20
2019-01-28T16:42:37.020Z,3.20
2019-01-28T16:44:38.673Z,3.20
2019-01-28T16:46:40.336Z,3.20
2019-01-28T16:48:41.982Z,3.10
2019-01-28T16:50:43.636Z,3.10
2019-01-28T16:52:45.564Z,3.10
2019-01-28T16:54:47.474Z,3.00
2019-01-28T16:56:49.141Z,3.00
2019-01-28T16:58:50.839Z,2.90
2019-01-28T17:00:52.545Z,2.90
2019-01-28T17:02:54.197Z,2.90
2019-01-28T17:04:55.849Z,2.80
2019-01-28T17:06:57.614Z,2.70
2019-01-28T17:08:59.282Z,2.60
2019-01-28T17:11:00.923Z,2.60
2019-01-28T17:13:02.713Z,2.50
2019-01-28T17:15:06.321Z,2.40
2019-01-28T17:17:08.253Z,2.40
2019-01-28T17:19:09.913Z,2.30
2019-01-28T17:21:11.576Z,2.30
2019-01-28T17:23:13.221Z,2.20
2019-01-28T17:25:17.649Z,2.10
2019-01-28T17:27:19.556Z,2.10
2019-01-28T17:29:21.435Z,2.10
2019-01-28T17:31:23.924Z,2.00
2019-01-28T17:33:25.585Z,2.00
2019-01-28T17:35:27.509Z,2.00
2019-01-28T17:37:29.181Z,1.90
2019-01-28T17:39:30.824Z,1.90
2019-01-28T17:41:32.485Z,1.90
2019-01-28T17:43:34.139Z,1.90
2019-01-28T17:45:35.833Z,1.90
2019-01-28T17:47:37.486Z,1.80
2019-01-28T17:49:40.329Z,1.90
2019-01-28T17:51:42.097Z,1.80
2019-01-28T17:53:44.015Z,1.80
2019-01-28T17:55:45.672Z,1.80
2019-01-28T17:57:47.324Z,1.80
2019-01-28T17:59:48.984Z,1.80
2019-01-28T18:01:50.909Z,1.80
2019-01-28T18:03:52.555Z,1.80
2019-01-28T18:05:54.204Z,1.80
2019-01-28T18:07:55.881Z,1.80
2019-01-28T18:09:57.860Z,1.80
2019-01-28T18:11:59.506Z,1.80
2019-01-28T18:14:01.160Z,1.80
2019-01-28T18:16:03.128Z,1.70
2019-01-28T18:18:04.796Z,1.70
2019-01-28T18:20:08.063Z,1.70
2019-01-28T18:22:09.733Z,1.70
2019-01-28T18:24:11.389Z,1.70
2019-01-28T18:26:13.076Z,1.70
2019-01-28T18:28:14.729Z,1.60
2019-01-28T18:30:26.078Z,1.70
2019-01-28T18:32:27.769Z,1.70
2019-01-28T18:34:29.452Z,1.60
2019-01-28T18:36:31.109Z,1.60
2019-01-28T18:38:32.781Z,1.60
2019-01-28T18:40:34.717Z,1.60
2019-01-28T18:42:36.380Z,1.60
2019-01-28T18:44:38.038Z,1.70
2019-01-28T18:46:39.689Z,1.60
2019-01-28T18:48:41.357Z,1.60
2019-01-28T18:50:43.281Z,1.60
2019-01-28T18:52:44.948Z,1.60
2019-01-28T18:54:46.635Z,1.60
2019-01-28T18:56:48.294Z,1.60
2019-01-28T18:58:49.955Z,1.60
2019-01-28T19:00:51.686Z,1.60
2019-01-28T19:02:54.037Z,1.50
2019-01-28T19:04:56.097Z,1.50
2019-01-28T19:07:25.032Z,1.50
2019-01-28T19:09:49.345Z,1.50
2019-01-28T19:12:04.097Z,1.50
2019-01-28T19:14:24.197Z,1.50
2019-01-28T19:16:43.971Z,1.50
2019-01-28T19:19:11.171Z,1.50
2019-01-28T19:21:20.956Z,1.50
2019-01-28T19:23:22.630Z,1.50
2019-01-28T19:25:24.548Z,1.50
2019-01-28T19:27:26.199Z,1.50
2019-01-28T19:29:28.186Z,1.40
2019-01-28T19:31:30.116Z,1.50
2019-01-28T19:33:31.785Z,1.40
2019-01-28T19:35:33.438Z,1.40
2019-01-28T19:37:35.095Z,1.40
2019-01-28T19:39:36.752Z,1.40
2019-01-28T19:41:38.408Z,1.30
2019-01-28T19:43:41.185Z,1.30
2019-01-28T19:45:43.240Z,1.30
2019-01-28T19:47:44.934Z,1.30
2019-01-28T19:49:46.949Z,1.30
2019-01-28T19:51:48.621Z,1.30
2019-01-28T19:53:50.301Z,1.30
2019-01-28T19:55:51.952Z,1.30
2019-01-28T19:57:53.609Z,1.30
2019-01-28T19:59:55.277Z,1.20
2019-01-28T20:01:56.937Z,1.20
2019-01-28T20:03:58.921Z,1.20
2019-01-28T20:06:00.576Z,1.20
2019-01-28T20:08:02.233Z,1.30
2019-01-28T20:10:04.257Z,1.30
2019-01-28T20:12:05.921Z,1.20
2019-01-28T20:14:07.996Z,1.30
2019-01-28T20:16:09.651Z,1.20
2019-01-28T20:18:11.313Z,1.30
2019-01-28T20:20:13.898Z,1.30
2019-01-28T20:22:15.576Z,1.20
2019-01-28T20:24:17.321Z,1.30
2019-01-28T20:26:18.992Z,1.20
2019-01-28T20:28:20.660Z,1.20
2019-01-28T20:30:24.112Z,1.20
2019-01-28T20:32:25.786Z,1.30
2019-01-28T20:34:27.791Z,1.20
2019-01-28T20:36:29.445Z,1.20
2019-01-28T20:38:31.401Z,1.20
2019-01-28T20:40:33.068Z,1.20
2019-01-28T20:42:34.712Z,1.20
2019-01-28T20:44:36.373Z,1.20
2019-01-28T20:46:38.028Z,1.20
2019-01-28T20:48:39.706Z,1.20
2019-01-28T20:50:41.616Z,1.30
2019-01-28T20:52:43.298Z,1.30
2019-01-28T20:54:44.964Z,1.30
2019-01-28T20:56:46.602Z,1.30
2019-01-28T20:58:48.349Z,1.30
2019-01-28T21:00:50.395Z,1.30
2019-01-28T21:02:52.062Z,1.30
2019-01-28T21:04:53.737Z,1.30
2019-01-28T21:06:55.589Z,1.30
2019-01-28T21:08:57.416Z,1.30
2019-01-28T21:10:59.161Z,1.40
2019-01-28T21:13:00.887Z,1.40
2019-01-28T21:15:02.974Z,1.40
2019-01-28T21:17:05.037Z,1.40
2019-01-28T21:19:06.701Z,1.40
2019-01-28T21:21:08.361Z,1.30
2019-01-28T21:23:10.016Z,1.30
2019-01-28T21:25:14.405Z,1.30
2019-01-28T21:27:16.070Z,1.30
2019-01-28T21:29:17.741Z,1.30
2019-01-28T21:31:19.402Z,1.30
2019-01-28T21:33:21.065Z,1.30
2019-01-28T21:35:42.411Z,1.30
2019-01-28T21:38:00.189Z,1.20
2019-01-28T21:39:56.337Z,1.20
2019-01-28T21:41:57.997Z,1.10
2019-01-28T21:43:59.657Z,1.10
2019-01-28T21:46:01.420Z,1.10
2019-01-28T21:48:04.021Z,1.10
2019-01-28T21:50:06.603Z,1.00
2019-01-28T21:52:08.265Z,1.10
2019-01-28T21:54:09.920Z,1.00
2019-01-28T21:56:11.597Z,1.00
2019-01-28T21:58:13.261Z,1.00
2019-01-28T22:00:15.183Z,1.00
2019-01-28T22:02:16.847Z,1.00
2019-01-28T22:04:18.820Z,1.10
2019-01-28T22:06:20.500Z,1.10
2019-01-28T22:08:22.155Z,1.10
2019-01-28T22:10:23.815Z,1.00
2019-01-28T22:12:25.477Z,1.00
2019-01-28T22:14:27.132Z,1.00
2019-01-28T22:16:28.805Z,1.10
2019-01-28T22:18:30.469Z,1.10
2019-01-28T22:20:32.683Z,1.10
2019-01-28T22:22:34.336Z,1.10
2019-01-28T22:24:36.093Z,1.10
2019-01-28T22:26:37.758Z,1.10
2019-01-28T22:28:39.704Z,1.10
2019-01-28T22:30:41.380Z,1.10
2019-01-28T22:32:43.029Z,1.10
2019-01-28T22:34:47.830Z,1.10
2019-01-28T22:36:48.864Z,1.10
2019-01-28T22:38:50.519Z,1.10
2019-01-28T22:40:52.193Z,1.00
2019-01-28T22:42:54.132Z,1.10
2019-01-28T22:44:55.804Z,1.00
2019-01-28T22:46:57.465Z,1.00
2019-01-28T22:48:59.128Z,1.00
2019-01-28T22:51:01.049Z,1.00
2019-01-28T22:53:02.709Z,1.00
2019-01-28T22:55:04.780Z,1.00
2019-01-28T22:57:06.674Z,1.00
2019-01-28T22:59:08.329Z,0.90
2019-01-28T23:01:23.268Z,1.00
2019-01-28T23:03:27.135Z,1.00
2019-01-28T23:05:28.805Z,0.90
2019-01-28T23:07:30.749Z,0.90
2019-01-28T23:09:32.417Z,0.90
2019-01-28T23:11:34.357Z,0.90
2019-01-28T23:13:37.049Z,0.80
2019-01-28T23:15:39.111Z,0.80
2019-01-28T23:17:40.751Z,0.80
2019-01-28T23:19:42.416Z,0.80
2019-01-28T23:21:44.113Z,0.70
2019-01-28T23:23:45.765Z,0.70
2019-01-28T23:25:47.423Z,0.60
2019-01-28T23:27:49.081Z,0.60
2019-01-28T23:29:50.741Z,0.60
2019-01-28T23:31:52.413Z,0.60
2019-01-28T23:33:54.053Z,0.60
2019-01-28T23:35:55.720Z,0.50
2019-01-28T23:37:57.381Z,0.50
2019-01-28T23:39:59.024Z,0.50
2019-01-28T23:42:00.977Z,0.50
2019-01-28T23:44:02.639Z,0.50
2019-01-28T23:46:04.301Z,0.50
2019-01-28T23:48:05.955Z,0.50
2019-01-28T23:50:08.401Z,0.50
2019-01-28T23:52:10.070Z,0.50
2019-01-28T23:54:11.720Z,0.50
2019-01-28T23:56:13.656Z,0.50
2019-01-28T23:58:15.317Z,0.40
